Time;durP1;ratioP1;P1;durP2;ratioP2;P2;SDS_P1;SDS_P2;PMS_P1;PMS_P2;Temp;Humidity;BMP_temperature;BMP_pressure;BME280_temperature;BME280_humidity;BME280_pressure;Samples;Min_cycle;Max_cycle;Signal;HPM_P1;HPM_P2
2021/10/17 00:02:14;;;;;;;3.30;2.90;;;9.90;99.90;;;;;;5031719;28;20739;-71
2021/10/17 00:04:40;;;;;;;3.83;2.63;;;10.00;99.90;;;;;;5031596;28;20200;-71
2021/10/17 00:07:09;;;;;;;5.70;3.23;;;10.00;99.90;;;;;;5031221;28;20761;-71
2021/10/17 00:09:37;;;;;;;5.47;4.20;;;10.00;99.90;;;;;;5031285;28;20244;-71
2021/10/17 00:12:04;;;;;;;9.57;6.43;;;10.00;99.90;;;;;;5031623;28;20204;-71
2021/10/17 00:14:31;;;;;;;11.37;7.87;;;10.00;99.90;;;;;;5031431;28;20232;-71
2021/10/17 00:16:59;;;;;;;4.67;2.90;;;9.90;99.90;;;;;;5030601;28;20263;-71
2021/10/17 00:19:25;;;;;;;7.63;5.63;;;9.90;99.90;;;;;;5031112;28;20711;-71
2021/10/17 00:21:52;;;;;;;9.33;6.67;;;9.80;99.90;;;;;;5031421;28;20293;-71
2021/10/17 00:24:19;;;;;;;4.83;3.77;;;9.70;99.90;;;;;;5031511;28;20259;-71
2021/10/17 00:26:45;;;;;;;5.53;2.70;;;9.70;99.90;;;;;;5031341;28;20232;-71
2021/10/17 00:29:12;;;;;;;4.37;3.60;;;9.60;99.90;;;;;;5031172;28;20233;-71
2021/10/17 00:31:39;;;;;;;3.47;2.93;;;9.60;99.90;;;;;;5031116;28;20267;-70
2021/10/17 00:34:07;;;;;;;4.80;3.20;;;9.60;99.90;;;;;;5031076;28;20204;-70
2021/10/17 00:36:33;;;;;;;3.53;3.00;;;9.60;99.90;;;;;;5031082;28;20747;-71
2021/10/17 00:39:00;;;;;;;5.70;2.67;;;9.60;99.90;;;;;;5031093;28;20224;-71
2021/10/17 00:41:31;;;;;;;4.20;2.37;;;9.70;99.90;;;;;;5031033;28;20245;-70
2021/10/17 00:43:57;;;;;;;6.77;3.10;;;9.60;99.90;;;;;;5030819;28;20705;-71
2021/10/17 00:46:24;;;;;;;3.27;2.60;;;9.50;99.90;;;;;;5030972;28;20241;-71
2021/10/17 00:48:51;;;;;;;3.70;2.30;;;9.50;99.90;;;;;;5030933;28;20259;-70
2021/10/17 00:51:19;;;;;;;5.30;2.27;;;9.50;99.90;;;;;;5030856;28;20570;-71
2021/10/17 00:53:46;;;;;;;4.70;2.20;;;9.50;99.90;;;;;;5030750;28;20258;-71
2021/10/17 00:56:13;;;;;;;2.53;2.33;;;9.50;99.90;;;;;;5030791;28;20244;-70
2021/10/17 00:58:39;;;;;;;5.23;2.63;;;9.50;99.90;;;;;;5030374;28;20639;-71
2021/10/17 01:01:06;;;;;;;4.30;2.20;;;9.40;99.90;;;;;;5030203;28;20237;-71
2021/10/17 01:03:32;;;;;;;2.57;2.10;;;9.50;99.90;;;;;;5029692;28;20278;-70
2021/10/17 01:05:59;;;;;;;2.93;2.00;;;9.50;99.90;;;;;;5030174;28;20754;-70
2021/10/17 01:08:27;;;;;;;4.70;2.20;;;9.40;99.90;;;;;;5030432;28;20228;-71
2021/10/17 01:10:55;;;;;;;4.03;2.43;;;9.40;99.90;;;;;;5030407;28;20302;-70
2021/10/17 01:13:25;;;;;;;3.47;2.37;;;9.40;99.90;;;;;;5030289;28;20614;-71
2021/10/17 01:15:53;;;;;;;1.73;1.60;;;9.40;99.90;;;;;;5010390;28;20225;-70
2021/10/17 01:18:20;;;;;;;3.77;2.27;;;9.40;99.90;;;;;;5010230;28;20742;-71
2021/10/17 01:20:48;;;;;;;3.27;2.20;;;9.40;99.90;;;;;;5009800;28;20264;-70
2021/10/17 01:23:16;;;;;;;4.30;2.33;;;9.40;99.90;;;;;;5010445;28;20357;-71
2021/10/17 01:25:43;;;;;;;2.80;1.93;;;9.30;99.90;;;;;;5010203;28;20372;-71
2021/10/17 01:28:10;;;;;;;5.90;1.90;;;9.40;99.90;;;;;;5010358;28;20241;-71
2021/10/17 01:30:37;;;;;;;4.33;2.20;;;9.40;99.90;;;;;;5010131;28;20416;-71
2021/10/17 01:33:04;;;;;;;3.20;2.20;;;9.40;99.90;;;;;;5010415;28;20244;-71
2021/10/17 01:35:32;;;;;;;3.07;2.30;;;9.50;99.90;;;;;;5009931;28;20561;-70
2021/10/17 01:38:00;;;;;;;5.90;2.53;;;9.50;99.90;;;;;;5010228;28;20214;-71
2021/10/17 01:40:26;;;;;;;3.60;2.13;;;9.50;99.90;;;;;;5010233;28;20272;-71
2021/10/17 01:42:53;;;;;;;5.37;2.30;;;9.50;99.90;;;;;;5010185;28;20237;-71
2021/10/17 01:45:20;;;;;;;4.40;1.87;;;9.50;99.90;;;;;;5009343;28;20791;-71
2021/10/17 01:47:47;;;;;;;4.53;2.10;;;9.40;99.90;;;;;;5009538;28;20660;-71
2021/10/17 01:50:14;;;;;;;4.50;2.37;;;9.40;99.90;;;;;;5009796;28;20220;-71
2021/10/17 01:52:41;;;;;;;3.27;1.97;;;9.40;99.90;;;;;;5009507;28;20209;-71
2021/10/17 01:55:10;;;;;;;2.60;2.40;;;9.40;99.90;;;;;;5008785;28;20727;-71
2021/10/17 01:57:37;;;;;;;6.33;2.33;;;9.50;99.90;;;;;;5008663;28;20286;-71
2021/10/17 02:00:05;;;;;;;3.10;2.33;;;9.50;99.90;;;;;;5009107;28;20277;-71
2021/10/17 02:02:32;;;;;;;6.40;2.40;;;9.50;99.90;;;;;;5009639;28;20306;-71
2021/10/17 02:04:59;;;;;;;3.30;2.20;;;9.50;99.90;;;;;;5009732;28;20213;-71
2021/10/17 02:07:25;;;;;;;5.73;2.40;;;9.50;99.90;;;;;;5009461;28;20252;-70
2021/10/17 02:09:52;;;;;;;4.93;2.27;;;9.50;99.90;;;;;;5009600;28;20233;-71
2021/10/17 02:12:25;;;;;;;7.40;2.47;;;9.50;99.90;;;;;;5009661;28;20205;-71
2021/10/17 02:14:52;;;;;;;5.17;2.00;;;9.60;99.90;;;;;;5009253;28;20198;-71
2021/10/17 02:17:18;;;;;;;2.03;1.90;;;9.50;99.90;;;;;;5009534;28;20209;-71
2021/10/17 02:19:45;;;;;;;2.83;2.00;;;9.50;99.90;;;;;;5009333;28;20730;-71
2021/10/17 02:22:12;;;;;;;3.37;2.00;;;9.50;99.90;;;;;;5009475;28;20272;-71
2021/10/17 02:24:38;;;;;;;4.90;2.33;;;9.60;99.90;;;;;;5009209;28;20267;-71
2021/10/17 02:27:05;;;;;;;3.10;1.70;;;9.60;99.90;;;;;;5009395;28;20205;-71
2021/10/17 02:29:33;;;;;;;5.03;2.10;;;9.60;99.90;;;;;;5009011;28;20233;-71
2021/10/17 02:31:59;;;;;;;3.10;2.10;;;9.60;99.90;;;;;;5009348;28;20205;-71
2021/10/17 02:34:26;;;;;;;3.93;2.10;;;9.70;99.90;;;;;;5009222;28;20209;-71
2021/10/17 02:36:53;;;;;;;1.77;1.63;;;9.60;99.90;;;;;;5009076;28;20253;-71
2021/10/17 02:39:20;;;;;;;2.90;1.90;;;9.60;99.90;;;;;;5008895;28;20225;-71
2021/10/17 02:41:46;;;;;;;4.27;2.00;;;9.60;99.90;;;;;;5008855;28;20267;-70
2021/10/17 02:44:13;;;;;;;4.77;2.37;;;9.70;99.90;;;;;;5009031;28;20283;-71
2021/10/17 02:46:41;;;;;;;4.60;2.43;;;9.70;99.90;;;;;;5008913;28;20271;-71
2021/10/17 02:49:08;;;;;;;2.60;2.40;;;9.60;99.90;;;;;;5008955;28;20252;-71
2021/10/17 02:51:35;;;;;;;3.20;2.17;;;9.60;99.90;;;;;;5008767;28;20208;-71
2021/10/17 02:54:01;;;;;;;6.47;2.33;;;9.60;99.90;;;;;;5008240;28;20273;-71
2021/10/17 02:56:28;;;;;;;4.93;2.40;;;9.60;99.90;;;;;;5007235;28;20260;-71
2021/10/17 02:58:55;;;;;;;3.20;2.00;;;9.50;99.90;;;;;;5007450;28;20693;-71
2021/10/17 03:01:21;;;;;;;3.60;2.33;;;9.50;99.90;;;;;;5006848;28;20750;-71
2021/10/17 03:03:49;;;;;;;5.37;2.10;;;9.40;99.90;;;;;;5007326;28;20210;-71
2021/10/17 03:06:16;;;;;;;3.43;2.00;;;9.40;99.90;;;;;;5007307;28;20268;-71
2021/10/17 03:08:42;;;;;;;2.20;2.00;;;9.40;99.90;;;;;;5008184;28;20210;-70
2021/10/17 03:11:09;;;;;;;3.80;2.30;;;9.40;99.90;;;;;;5008704;28;20237;-71
2021/10/17 03:13:36;;;;;;;3.77;1.90;;;9.30;99.90;;;;;;5008508;28;20206;-71
2021/10/17 03:16:02;;;;;;;6.47;2.53;;;9.30;99.90;;;;;;5008765;28;20237;-70
2021/10/17 03:18:29;;;;;;;3.97;2.27;;;9.30;99.90;;;;;;5008376;28;20210;-70
2021/10/17 03:20:57;;;;;;;3.50;2.00;;;9.20;99.90;;;;;;5007924;28;21028;-71
2021/10/17 03:23:24;;;;;;;3.93;2.17;;;9.20;99.90;;;;;;5008566;28;20213;-71
2021/10/17 03:25:50;;;;;;;5.43;2.47;;;9.30;99.90;;;;;;5007737;28;20578;-70
2021/10/17 03:28:17;;;;;;;4.27;2.07;;;9.40;99.90;;;;;;5008571;28;20230;-70
2021/10/17 03:30:43;;;;;;;2.77;2.00;;;9.40;99.90;;;;;;5008297;28;20236;-70
2021/10/17 03:33:10;;;;;;;5.73;3.50;;;9.40;99.90;;;;;;5008495;28;20237;-70
2021/10/17 03:35:37;;;;;;;3.97;2.20;;;9.50;99.90;;;;;;5008231;28;20233;-71
2021/10/17 03:38:04;;;;;;;6.87;2.10;;;9.40;99.90;;;;;;5008376;28;20251;-70
2021/10/17 03:40:31;;;;;;;5.13;2.07;;;9.30;99.90;;;;;;5008205;28;20276;-71
2021/10/17 03:42:58;;;;;;;4.07;2.13;;;9.20;99.90;;;;;;5008300;28;20307;-70
2021/10/17 03:45:24;;;;;;;3.87;1.90;;;9.20;99.90;;;;;;5008175;28;20226;-70
2021/10/17 03:47:51;;;;;;;3.13;1.83;;;9.10;99.90;;;;;;5008247;28;20259;-71
2021/10/17 03:50:18;;;;;;;2.83;2.00;;;9.00;99.90;;;;;;5008196;28;20252;-71
2021/10/17 03:52:44;;;;;;;3.17;2.00;;;8.90;99.90;;;;;;5008086;28;20259;-70
2021/10/17 03:55:12;;;;;;;4.13;2.30;;;8.90;99.90;;;;;;5008297;28;20212;-70
2021/10/17 03:57:39;;;;;;;2.97;2.03;;;8.80;99.90;;;;;;5008016;28;20232;-71
2021/10/17 04:00:06;;;;;;;4.63;2.10;;;8.80;99.90;;;;;;5007853;28;20697;-70
2021/10/17 04:02:35;;;;;;;2.40;1.67;;;8.70;99.90;;;;;;5008096;28;20678;-71
2021/10/17 04:05:02;;;;;;;3.57;1.80;;;8.70;99.90;;;;;;5008057;28;20245;-71
2021/10/17 04:07:28;;;;;;;3.07;2.30;;;8.60;99.90;;;;;;5007773;28;20229;-71
2021/10/17 04:09:55;;;;;;;3.67;1.87;;;8.50;99.90;;;;;;5007913;28;20260;-70
2021/10/17 04:12:23;;;;;;;4.43;1.83;;;8.60;99.90;;;;;;5008131;28;20294;-71
2021/10/17 04:14:49;;;;;;;4.97;2.30;;;8.40;99.90;;;;;;5007891;28;20287;-70
2021/10/17 04:17:16;;;;;;;4.80;2.00;;;8.50;99.90;;;;;;5008093;28;20620;-70
2021/10/17 04:19:42;;;;;;;3.97;2.10;;;8.50;99.90;;;;;;5007802;28;20209;-70
2021/10/17 04:22:09;;;;;;;6.63;2.27;;;8.50;99.90;;;;;;5007912;28;20205;-70
2021/10/17 04:24:36;;;;;;;4.13;1.70;;;8.40;99.90;;;;;;5007891;28;20680;-70
2021/10/17 04:27:07;;;;;;;4.00;1.97;;;8.40;99.90;;;;;;5007941;28;20643;-70
2021/10/17 04:29:35;;;;;;;4.90;2.03;;;8.40;99.90;;;;;;5007693;28;20257;-71
2021/10/17 04:32:02;;;;;;;3.27;2.17;;;8.40;99.90;;;;;;5007887;28;20214;-71
2021/10/17 04:34:29;;;;;;;2.20;2.00;;;8.40;99.90;;;;;;5008144;28;20206;-70
2021/10/17 04:36:56;;;;;;;2.63;2.17;;;8.40;99.90;;;;;;5007889;28;20564;-71
2021/10/17 04:39:23;;;;;;;2.33;1.67;;;8.40;99.90;;;;;;5011619;28;20241;-71
2021/10/17 04:41:49;;;;;;;4.03;1.93;;;8.40;99.90;;;;;;5011211;28;20291;-70
2021/10/17 04:44:16;;;;;;;6.10;1.90;;;8.40;99.90;;;;;;5011360;28;20307;-71
2021/10/17 04:46:44;;;;;;;4.00;2.20;;;8.40;99.90;;;;;;5011021;28;20245;-70
2021/10/17 04:49:11;;;;;;;2.83;1.90;;;8.40;99.90;;;;;;5011416;28;20245;-71
2021/10/17 04:51:38;;;;;;;4.20;1.90;;;8.40;99.90;;;;;;5010733;28;20264;-71
2021/10/17 04:54:04;;;;;;;5.37;1.70;;;8.40;99.90;;;;;;5011111;28;20225;-71
2021/10/17 04:56:31;;;;;;;2.80;1.90;;;8.40;99.90;;;;;;5010987;28;20279;-70
2021/10/17 04:58:58;;;;;;;10.23;2.10;;;8.50;99.90;;;;;;5010644;28;20778;-71
2021/10/17 05:01:25;;;;;;;3.10;2.03;;;8.50;99.90;;;;;;5010351;28;20268;-70
2021/10/17 05:03:53;;;;;;;3.67;2.23;;;8.50;99.90;;;;;;5010689;28;20260;-71
2021/10/17 05:06:19;;;;;;;2.67;2.17;;;8.50;99.90;;;;;;5010750;28;20257;-70
2021/10/17 05:08:46;;;;;;;4.03;2.70;;;8.50;99.90;;;;;;5010576;28;20284;-70
2021/10/17 05:11:13;;;;;;;7.57;2.40;;;8.40;99.90;;;;;;5010771;28;20205;-71
2021/10/17 05:13:41;;;;;;;3.23;1.90;;;8.40;99.90;;;;;;5010525;28;20205;-71
2021/10/17 05:16:08;;;;;;;2.47;2.20;;;8.50;99.90;;;;;;5010647;28;20209;-71
2021/10/17 05:18:35;;;;;;;2.00;1.80;;;8.50;99.90;;;;;;5010443;28;20209;-71
2021/10/17 05:21:04;;;;;;;3.87;2.43;;;8.60;99.90;;;;;;5010502;28;20272;-70
2021/10/17 05:23:31;;;;;;;3.83;2.10;;;8.60;99.90;;;;;;5009786;28;20750;-71
2021/10/17 05:25:58;;;;;;;4.30;2.13;;;8.70;99.90;;;;;;5010288;28;20209;-71
2021/10/17 05:28:24;;;;;;;2.17;1.97;;;8.70;99.90;;;;;;5010400;28;20236;-70
2021/10/17 05:30:51;;;;;;;2.97;1.80;;;8.70;99.90;;;;;;5010187;28;20267;-71
2021/10/17 05:33:17;;;;;;;5.30;2.03;;;8.80;99.90;;;;;;5010186;28;20237;-71
2021/10/17 05:35:44;;;;;;;2.57;1.40;;;8.80;99.90;;;;;;5010102;28;20427;-70
2021/10/17 05:38:12;;;;;;;2.37;2.17;;;8.90;99.90;;;;;;5010210;28;20213;-70
2021/10/17 05:40:39;;;;;;;4.37;2.20;;;8.70;99.90;;;;;;5009901;28;20703;-71
2021/10/17 05:43:06;;;;;;;3.10;2.30;;;8.70;99.90;;;;;;5010114;28;20201;-71
2021/10/17 05:45:32;;;;;;;3.30;2.30;;;8.60;99.90;;;;;;5009944;28;20264;-71
2021/10/17 05:47:59;;;;;;;3.13;1.87;;;8.50;99.90;;;;;;5009405;28;20639;-70
2021/10/17 05:50:25;;;;;;;4.53;2.40;;;8.50;99.90;;;;;;5010050;28;20217;-71
2021/10/17 05:52:52;;;;;;;6.37;2.33;;;8.50;99.90;;;;;;5009347;28;20676;-71
2021/10/17 05:55:20;;;;;;;6.37;2.83;;;8.60;99.90;;;;;;5009997;28;20621;-71
2021/10/17 05:57:46;;;;;;;4.13;2.50;;;8.60;99.90;;;;;;5009826;28;20201;-71
2021/10/17 06:00:14;;;;;;;2.33;2.10;;;8.60;99.90;;;;;;5009501;28;20272;-70
2021/10/17 06:02:41;;;;;;;3.30;2.40;;;8.60;99.90;;;;;;5009647;28;20245;-70
2021/10/17 06:05:09;;;;;;;5.00;2.07;;;8.70;99.90;;;;;;5009845;28;20632;-71
2021/10/17 06:07:35;;;;;;;3.47;2.60;;;8.60;99.90;;;;;;5009327;28;20318;-70
2021/10/17 06:10:03;;;;;;;6.33;2.50;;;8.50;99.90;;;;;;5009653;28;20230;-70
2021/10/17 06:12:32;;;;;;;3.53;2.47;;;8.50;99.90;;;;;;5009240;28;20738;-70
2021/10/17 06:14:59;;;;;;;4.53;2.70;;;8.50;99.90;;;;;;5009492;28;20206;-71
2021/10/17 06:17:25;;;;;;;3.23;2.90;;;8.40;99.90;;;;;;5009445;28;20276;-70
2021/10/17 06:19:52;;;;;;;4.50;2.73;;;8.40;99.90;;;;;;5009479;28;20263;-71
2021/10/17 06:22:18;;;;;;;3.70;2.43;;;8.40;99.90;;;;;;5009247;28;20306;-71
2021/10/17 06:24:45;;;;;;;5.47;2.60;;;8.40;99.90;;;;;;5009266;28;20244;-71
2021/10/17 06:27:11;;;;;;;5.30;2.80;;;8.30;99.90;;;;;;5008962;28;20699;-71
2021/10/17 06:29:39;;;;;;;5.00;2.70;;;8.30;99.90;;;;;;5009162;28;20206;-71
2021/10/17 06:32:07;;;;;;;3.67;3.23;;;8.30;99.90;;;;;;5008995;28;20802;-70
2021/10/17 06:34:36;;;;;;;5.13;2.77;;;8.20;99.90;;;;;;5008744;28;20691;-71
2021/10/17 06:37:03;;;;;;;2.93;2.50;;;8.20;99.90;;;;;;5009109;28;20237;-70
2021/10/17 06:39:30;;;;;;;3.93;2.77;;;8.30;99.90;;;;;;5009182;28;20248;-70
2021/10/17 06:41:57;;;;;;;2.47;2.13;;;8.40;99.90;;;;;;5008963;28;20718;-70
2021/10/17 06:44:23;;;;;;;8.03;2.60;;;8.30;99.90;;;;;;5008810;28;20226;-70
2021/10/17 06:46:52;;;;;;;3.07;2.40;;;8.40;99.90;;;;;;5008872;28;20309;-71
2021/10/17 06:49:19;;;;;;;5.03;3.50;;;8.40;99.90;;;;;;5009213;28;20296;-70
2021/10/17 06:51:48;;;;;;;6.80;4.20;;;8.40;99.90;;;;;;5008756;28;20256;-71
2021/10/17 06:54:15;;;;;;;5.67;3.10;;;8.40;99.90;;;;;;5009087;28;20683;-71
2021/10/17 06:56:42;;;;;;;8.23;4.07;;;8.50;99.90;;;;;;5008742;28;20264;-71
2021/10/17 06:59:09;;;;;;;5.80;2.60;;;8.60;99.90;;;;;;5008196;28;20664;-71
2021/10/17 07:01:35;;;;;;;5.17;2.30;;;8.70;99.90;;;;;;5007918;28;20280;-70
2021/10/17 07:04:04;;;;;;;4.23;2.07;;;8.80;99.90;;;;;;5008656;28;20675;-71
2021/10/17 07:06:31;;;;;;;2.57;1.80;;;8.90;99.90;;;;;;5008263;28;20225;-70
2021/10/17 07:08:57;;;;;;;2.40;1.97;;;9.00;99.90;;;;;;5008421;28;20724;-70
2021/10/17 07:11:24;;;;;;;4.10;2.20;;;9.00;99.90;;;;;;5008644;28;20217;-71
2021/10/17 07:13:51;;;;;;;5.63;2.17;;;9.10;99.90;;;;;;5008367;28;20683;-70
2021/10/17 07:16:17;;;;;;;4.93;2.40;;;9.10;99.90;;;;;;5008658;28;20217;-70
2021/10/17 07:18:44;;;;;;;5.73;2.63;;;9.20;99.90;;;;;;5008513;28;20286;-71
2021/10/17 07:21:12;;;;;;;6.47;2.50;;;9.20;99.90;;;;;;5008380;28;20590;-70
2021/10/17 07:23:38;;;;;;;3.83;2.27;;;9.10;99.90;;;;;;5008455;28;20299;-70
2021/10/17 07:26:05;;;;;;;2.07;1.80;;;9.20;99.90;;;;;;5008267;28;20702;-71
2021/10/17 07:28:32;;;;;;;4.43;2.47;;;9.10;99.90;;;;;;5008005;28;20766;-71
2021/10/17 07:30:58;;;;;;;4.73;2.13;;;9.10;99.90;;;;;;5008356;28;20797;-70
2021/10/17 07:33:25;;;;;;;7.00;2.33;;;9.10;99.90;;;;;;5008095;28;20672;-70
2021/10/17 07:35:52;;;;;;;4.70;2.20;;;9.10;99.90;;;;;;5008237;28;20209;-71
2021/10/17 07:38:20;;;;;;;2.40;1.77;;;9.20;99.90;;;;;;5008380;28;20266;-71
2021/10/17 07:40:46;;;;;;;6.40;2.70;;;9.30;99.90;;;;;;5008100;28;20245;-71
2021/10/17 07:43:13;;;;;;;6.00;2.70;;;9.30;99.90;;;;;;5008263;28;20210;-70
2021/10/17 07:45:39;;;;;;;4.60;2.30;;;9.20;99.90;;;;;;5008335;28;20248;-71
2021/10/17 07:48:10;;;;;;;5.20;2.47;;;9.20;99.90;;;;;;5008252;28;20209;-70
2021/10/17 07:50:36;;;;;;;2.90;2.13;;;9.20;99.90;;;;;;5008014;28;20202;-71
2021/10/17 07:53:03;;;;;;;6.53;2.17;;;9.10;99.90;;;;;;5007379;28;20700;-71
2021/10/17 07:55:31;;;;;;;3.37;2.27;;;9.10;99.90;;;;;;5006597;28;20205;-71
2021/10/17 07:57:58;;;;;;;5.20;2.03;;;9.20;99.90;;;;;;5007544;28;20484;-71
2021/10/17 08:00:27;;;;;;;3.20;2.20;;;9.20;99.90;;;;;;5007678;28;20644;-70
2021/10/17 08:02:53;;;;;;;5.13;2.40;;;9.20;99.90;;;;;;5007915;28;20265;-70
2021/10/17 08:05:20;;;;;;;4.10;1.73;;;9.20;99.90;;;;;;5007738;28;20564;-70
2021/10/17 08:07:47;;;;;;;5.43;2.30;;;9.20;99.90;;;;;;5007712;28;20271;-71
2021/10/17 08:10:14;;;;;;;4.53;2.67;;;9.20;99.90;;;;;;5008066;28;20328;-71
2021/10/17 08:12:42;;;;;;;4.07;2.03;;;9.20;99.90;;;;;;5010520;28;20626;-70
2021/10/17 08:15:10;;;;;;;6.43;2.30;;;9.30;99.90;;;;;;5011766;28;20233;-70
2021/10/17 08:17:38;;;;;;;5.40;2.10;;;9.30;99.90;;;;;;5011232;28;20249;-71
2021/10/17 08:20:06;;;;;;;5.73;2.20;;;9.40;99.90;;;;;;5011749;28;20205;-71
2021/10/17 08:22:34;;;;;;;3.63;2.10;;;9.50;99.90;;;;;;5011082;28;20788;-71
2021/10/17 08:25:02;;;;;;;6.17;2.60;;;9.50;99.90;;;;;;5011430;28;20252;-71
2021/10/17 08:27:28;;;;;;;5.13;2.60;;;9.50;99.90;;;;;;5011152;28;20770;-71
2021/10/17 08:29:56;;;;;;;10.03;2.53;;;9.60;99.90;;;;;;5011201;28;20233;-71
2021/10/17 08:32:23;;;;;;;3.80;2.50;;;9.60;99.90;;;;;;5011272;28;20668;-70
2021/10/17 08:34:49;;;;;;;5.07;2.50;;;9.60;99.90;;;;;;5011253;28;20209;-70
2021/10/17 08:37:16;;;;;;;6.97;2.97;;;9.60;99.90;;;;;;5011261;28;21107;-71
2021/10/17 08:39:43;;;;;;;7.50;2.77;;;9.70;99.90;;;;;;5010945;28;20291;-71
2021/10/17 08:42:11;;;;;;;4.70;2.53;;;9.80;99.90;;;;;;5011150;28;20291;-70
2021/10/17 08:44:37;;;;;;;4.93;2.47;;;9.90;99.90;;;;;;5010948;28;20284;-70
2021/10/17 08:47:06;;;;;;;5.87;2.50;;;10.00;99.90;;;;;;5010643;28;20739;-70
2021/10/17 08:49:34;;;;;;;8.47;2.80;;;10.00;99.90;;;;;;5010581;28;20209;-70
2021/10/17 08:52:01;;;;;;;6.87;5.03;;;10.10;99.90;;;;;;5011081;28;20591;-70
2021/10/17 08:54:27;;;;;;;8.03;5.47;;;10.20;99.90;;;;;;5011125;28;20292;-70
2021/10/17 08:56:54;;;;;;;5.70;2.70;;;10.20;99.90;;;;;;5010998;28;20229;-70
2021/10/17 08:59:20;;;;;;;5.93;2.53;;;10.30;99.90;;;;;;5010722;28;20615;-71
2021/10/17 09:01:50;;;;;;;3.40;2.17;;;10.40;99.90;;;;;;5010760;28;20218;-70
2021/10/17 09:04:18;;;;;;;5.30;2.50;;;10.40;99.90;;;;;;5010546;28;20702;-69
2021/10/17 09:06:46;;;;;;;3.07;2.73;;;10.50;99.90;;;;;;5010055;28;20720;-70
2021/10/17 09:09:15;;;;;;;5.97;2.47;;;10.60;99.90;;;;;;5010542;28;20226;-70
2021/10/17 09:11:44;;;;;;;7.00;2.87;;;10.70;99.90;;;;;;5010543;28;20215;-70
2021/10/17 09:14:13;;;;;;;8.40;2.53;;;10.80;99.90;;;;;;5010480;28;20308;-70
2021/10/17 09:16:42;;;;;;;4.17;2.63;;;11.00;99.90;;;;;;5010481;28;20214;-70
2021/10/17 09:19:15;;;;;;;3.73;2.60;;;11.20;99.90;;;;;;5010513;28;20259;-70
2021/10/17 09:22:05;;;;;;;4.70;2.83;;;11.20;99.90;;;;;;5010280;28;20256;-70
2021/10/17 09:24:37;;;;;;;5.83;2.67;;;11.20;99.90;;;;;;5009502;28;20267;-70
2021/10/17 09:27:11;;;;;;;4.63;2.80;;;11.20;99.90;;;;;;5010396;28;20253;-70
2021/10/17 09:29:39;;;;;;;5.20;2.57;;;11.20;99.90;;;;;;5009794;28;20251;-70
2021/10/17 09:32:13;;;;;;;3.23;2.43;;;11.20;99.90;;;;;;5010358;28;20205;-70
2021/10/17 09:34:40;;;;;;;5.70;2.83;;;11.20;99.90;;;;;;5010095;28;20208;-70
2021/10/17 09:37:09;;;;;;;5.60;2.30;;;11.30;99.90;;;;;;5010250;28;20232;-69
2021/10/17 09:39:38;;;;;;;2.83;2.20;;;11.40;99.90;;;;;;5010056;28;20287;-70
2021/10/17 09:42:07;;;;;;;4.47;2.47;;;11.60;99.90;;;;;;5010134;28;20233;-70
2021/10/17 09:44:38;;;;;;;3.67;2.50;;;11.80;99.90;;;;;;5009822;28;20237;-69
2021/10/17 09:47:05;;;;;;;5.67;2.93;;;12.00;99.90;;;;;;5010139;28;20231;-70
2021/10/17 09:49:32;;;;;;;7.83;2.30;;;12.20;99.90;;;;;;5009801;28;20206;-70
2021/10/17 09:52:17;;;;;;;6.43;2.40;;;12.40;99.90;;;;;;5009851;28;20280;-70
2021/10/17 09:54:46;;;;;;;2.90;2.10;;;12.50;99.90;;;;;;5009877;28;20202;-70
2021/10/17 09:57:13;;;;;;;3.23;2.20;;;12.70;99.90;;;;;;5009813;28;20213;-70
2021/10/17 09:59:41;;;;;;;5.03;2.43;;;12.50;99.90;;;;;;5009465;28;20706;-71
2021/10/17 10:02:12;;;;;;;5.43;2.30;;;12.50;99.90;;;;;;5009897;28;20233;-70
2021/10/17 10:04:40;;;;;;;8.03;2.37;;;12.60;99.90;;;;;;5009635;28;20206;-71
2021/10/17 10:07:08;;;;;;;4.67;2.33;;;12.60;99.90;;;;;;5009483;28;20205;-70
2021/10/17 10:09:37;;;;;;;3.83;2.37;;;12.60;99.90;;;;;;5009195;28;20276;-70
2021/10/17 10:12:05;;;;;;;4.07;2.53;;;12.50;99.90;;;;;;5009532;28;20241;-71
2021/10/17 10:14:34;;;;;;;5.90;2.77;;;12.40;99.90;;;;;;5009355;28;20213;-70
2021/10/17 10:17:02;;;;;;;6.03;2.80;;;12.30;99.90;;;;;;5009399;28;20235;-70
2021/10/17 10:19:31;;;;;;;7.80;2.80;;;12.20;99.90;;;;;;5009496;28;20208;-70
2021/10/17 10:21:58;;;;;;;10.13;2.83;;;12.00;99.90;;;;;;5009116;28;20685;-70
2021/10/17 10:24:26;;;;;;;3.43;2.57;;;12.10;99.90;;;;;;5009569;28;20206;-70
2021/10/17 10:26:54;;;;;;;4.40;2.70;;;12.10;99.90;;;;;;5009043;28;20229;-70
2021/10/17 10:29:25;;;;;;;5.07;2.70;;;12.20;99.90;;;;;;5009144;28;20205;-70
2021/10/17 10:31:55;;;;;;;5.13;2.47;;;12.30;99.90;;;;;;5009192;28;20227;-70
2021/10/17 10:35:03;;;;;;;4.50;2.80;;;12.30;99.90;;;;;;5008893;28;20574;-70
2021/10/17 10:37:32;;;;;;;4.83;2.40;;;12.30;99.90;;;;;;5008893;28;20201;-70
2021/10/17 10:40:10;;;;;;;3.67;2.53;;;12.10;99.90;;;;;;5008525;28;20228;-70
2021/10/17 10:42:40;;;;;;;6.33;2.80;;;12.10;99.90;;;;;;5008012;28;20917;-70
2021/10/17 10:45:32;;;;;;;4.63;2.80;;;12.10;99.90;;;;;;5008804;28;20209;-70
2021/10/17 10:48:20;;;;;;;7.73;4.10;;;12.10;99.90;;;;;;5009128;28;20196;-71
2021/10/17 10:50:49;;;;;;;6.00;3.67;;;12.20;99.90;;;;;;5009093;28;20208;-70
2021/10/17 10:53:48;;;;;;;4.23;2.77;;;12.20;99.90;;;;;;5008773;28;20205;-71
2021/10/17 10:56:48;;;;;;;5.67;2.50;;;12.20;99.90;;;;;;5009087;28;20207;-71
2021/10/17 10:59:19;;;;;;;4.20;2.57;;;12.30;99.90;;;;;;5008310;28;20263;-71
2021/10/17 11:02:17;;;;;;;9.13;3.03;;;12.30;99.90;;;;;;5008665;28;20198;-71
2021/10/17 11:05:02;;;;;;;4.97;3.03;;;12.30;99.90;;;;;;5008579;28;20221;-71
2021/10/17 11:07:35;;;;;;;9.67;2.87;;;12.30;99.90;;;;;;5008542;28;20229;-71
2021/10/17 11:10:41;;;;;;;7.53;3.13;;;12.40;99.90;;;;;;5008668;28;20551;-71
2021/10/17 11:13:10;;;;;;;6.30;2.83;;;12.40;99.90;;;;;;5008322;28;20669;-71
2021/10/17 11:15:40;;;;;;;7.83;2.97;;;12.40;99.90;;;;;;5008397;28;20201;-71
2021/10/17 11:18:08;;;;;;;5.00;2.67;;;12.40;99.90;;;;;;5008553;28;20205;-71
2021/10/17 11:20:37;;;;;;;7.07;3.13;;;12.30;99.90;;;;;;5008361;28;20550;-71
2021/10/17 11:23:05;;;;;;;9.43;2.70;;;12.30;99.90;;;;;;5008335;28;20268;-71
2021/10/17 11:25:33;;;;;;;5.20;2.80;;;12.30;99.90;;;;;;5008321;28;20205;-71
2021/10/17 11:28:00;;;;;;;6.60;3.47;;;12.30;99.90;;;;;;5008394;28;20323;-71
2021/10/17 11:30:30;;;;;;;9.50;2.93;;;12.30;99.90;;;;;;5008446;28;20209;-71
2021/10/17 11:32:59;;;;;;;8.07;2.53;;;12.30;99.90;;;;;;5008365;28;20263;-71
2021/10/17 11:35:31;;;;;;;5.73;3.13;;;12.40;99.90;;;;;;5008088;28;20214;-71
2021/10/17 11:37:58;;;;;;;5.53;3.23;;;12.50;99.90;;;;;;5008356;28;20608;-71
2021/10/17 11:40:26;;;;;;;6.70;2.93;;;12.50;99.90;;;;;;5008452;28;20210;-71
2021/10/17 11:42:55;;;;;;;9.27;3.23;;;12.50;99.90;;;;;;5008049;28;20311;-71
2021/10/17 11:45:24;;;;;;;6.30;3.63;;;12.40;99.90;;;;;;5008389;28;20237;-71
2021/10/17 11:47:52;;;;;;;11.33;3.13;;;12.30;99.90;;;;;;5011426;28;20220;-71
2021/10/17 11:50:22;;;;;;;7.83;3.40;;;12.30;99.90;;;;;;5012143;28;20263;-71
2021/10/17 11:52:51;;;;;;;4.63;2.87;;;12.20;99.90;;;;;;5012347;28;20590;-71
2021/10/17 11:55:33;;;;;;;7.33;3.50;;;12.30;99.90;;;;;;5012086;28;20240;-71
2021/10/17 11:58:00;;;;;;;5.20;3.53;;;12.30;99.90;;;;;;5012248;28;20328;-71
2021/10/17 12:00:28;;;;;;;6.20;3.00;;;12.30;99.90;;;;;;5011901;28;20272;-70
2021/10/17 12:02:56;;;;;;;8.80;3.40;;;12.20;99.90;;;;;;5011949;28;20295;-70
2021/10/17 12:05:25;;;;;;;7.53;3.10;;;12.30;99.90;;;;;;5011966;28;20225;-71
2021/10/17 12:07:55;;;;;;;5.43;2.80;;;12.30;99.90;;;;;;5011755;28;20603;-71
2021/10/17 12:10:23;;;;;;;6.13;3.17;;;12.30;99.90;;;;;;5012116;28;20206;-71
2021/10/17 12:12:49;;;;;;;8.70;3.67;;;12.40;99.90;;;;;;5011777;28;20201;-71
2021/10/17 12:15:16;;;;;;;8.20;3.40;;;12.50;99.90;;;;;;5011682;28;20687;-71
2021/10/17 12:17:44;;;;;;;5.93;3.43;;;12.50;99.90;;;;;;5011909;28;20287;-71
2021/10/17 12:20:13;;;;;;;9.10;3.20;;;12.40;99.90;;;;;;5011898;28;20209;-71
2021/10/17 12:22:43;;;;;;;6.10;2.80;;;12.40;99.90;;;;;;5011553;28;20240;-70
2021/10/17 12:25:11;;;;;;;5.73;3.33;;;12.40;99.90;;;;;;5011906;28;20271;-70
2021/10/17 12:27:39;;;;;;;7.23;3.57;;;12.40;99.90;;;;;;5011455;28;20264;-70
2021/10/17 12:30:08;;;;;;;4.57;3.10;;;12.40;99.90;;;;;;5011697;28;20206;-70
2021/10/17 12:32:46;;;;;;;8.10;3.53;;;12.40;99.90;;;;;;5011022;28;20217;-70
2021/10/17 12:35:30;;;;;;;9.20;3.70;;;12.40;99.90;;;;;;5011005;28;20240;-70
2021/10/17 12:38:05;;;;;;;7.07;3.40;;;12.30;99.90;;;;;;5010759;28;20668;-70
2021/10/17 12:40:34;;;;;;;6.80;3.50;;;12.30;99.90;;;;;;5011242;28;20197;-71
2021/10/17 12:43:03;;;;;;;8.80;3.70;;;12.30;99.90;;;;;;5011102;28;20319;-70
2021/10/17 12:45:31;;;;;;;6.67;3.53;;;12.30;99.90;;;;;;5011154;28;20241;-70
2021/10/17 12:47:59;;;;;;;6.77;4.07;;;12.20;99.90;;;;;;5011136;28;20241;-70
2021/10/17 12:50:28;;;;;;;4.13;3.30;;;12.30;99.90;;;;;;5011059;28;20241;-70
2021/10/17 12:52:59;;;;;;;5.07;3.40;;;12.20;99.90;;;;;;5010705;28;20210;-71
2021/10/17 12:55:31;;;;;;;8.20;3.33;;;12.20;99.90;;;;;;5010907;28;20625;-70
2021/10/17 12:58:03;;;;;;;10.07;6.23;;;12.20;99.90;;;;;;5009775;28;20271;-70
2021/10/17 13:00:29;;;;;;;15.47;7.93;;;12.20;99.90;;;;;;5010562;28;20241;-70